Time;durP1;ratioP1;P1;durP2;ratioP2;P2;SDS_P1;SDS_P2;PMS_P1;PMS_P2;Temp;Humidity;BMP_temperature;BMP_pressure;BME280_temperature;BME280_humidity;BME280_pressure;Samples;Min_cycle;Max_cycle;Signal;HPM_P1;HPM_P2
2021/11/15 00:01:43;;;;;;;19.50;16.43;;;;;;;4.62;97.37;95961.97;5057128;28;20323;-75
2021/11/15 00:04:13;;;;;;;13.33;12.20;;;;;;;4.50;97.28;95958.69;5067799;28;20216;-74
2021/11/15 00:06:41;;;;;;;14.10;11.67;;;;;;;4.63;97.23;95958.38;5064725;28;20234;-75
2021/11/15 00:09:10;;;;;;;14.57;13.07;;;;;;;4.67;96.62;95954.53;5063113;28;20304;-74
2021/11/15 00:11:39;;;;;;;16.63;12.13;;;;;;;4.64;96.74;95953.97;5054033;28;20308;-74
2021/11/15 00:14:08;;;;;;;14.53;13.03;;;;;;;4.72;96.00;95954.09;5055244;28;20706;-74
2021/11/15 00:16:37;;;;;;;13.83;12.07;;;;;;;4.72;95.84;95957.53;5059845;28;20319;-74
2021/11/15 00:19:05;;;;;;;16.23;13.93;;;;;;;4.65;96.26;95961.69;5057823;28;20234;-74
2021/11/15 00:21:34;;;;;;;15.63;13.60;;;;;;;4.57;96.68;95953.69;5051531;28;20221;-74
2021/11/15 00:24:02;;;;;;;19.90;15.07;;;;;;;4.64;96.44;95953.97;5048525;28;20241;-74
2021/11/15 00:26:32;;;;;;;13.57;11.87;;;;;;;4.59;96.72;95964.03;5052874;28;20217;-74
2021/11/15 00:29:01;;;;;;;14.73;12.43;;;;;;;4.51;96.57;95955.09;5064308;28;20244;-75
2021/11/15 00:31:30;;;;;;;14.73;13.07;;;;;;;4.49;96.77;95962.25;5073584;28;20244;-75
2021/11/15 00:33:58;;;;;;;15.00;11.43;;;;;;;4.43;96.81;95957.59;5061319;28;20779;-74
2021/11/15 00:36:26;;;;;;;14.40;12.70;;;;;;;4.46;97.08;95956.47;5060281;28;20303;-75
2021/11/15 00:38:56;;;;;;;15.30;13.77;;;;;;;4.52;96.95;95961.97;5053837;28;20239;-75
2021/11/15 00:41:24;;;;;;;14.07;11.90;;;;;;;4.60;96.69;95963.06;5046062;28;20480;-75
2021/11/15 00:43:53;;;;;;;19.50;14.77;;;;;;;4.65;96.42;95969.53;5048228;28;20223;-75
2021/11/15 00:46:22;;;;;;;16.03;14.37;;;;;;;4.61;96.42;95960.31;5045143;28;20311;-75
2021/11/15 00:48:55;;;;;;;14.30;12.80;;;;;;;4.60;96.52;95969.13;5057132;28;20371;-75
2021/11/15 00:51:23;;;;;;;16.30;12.33;;;;;;;4.58;96.50;95973.69;5063925;28;20227;-74
2021/11/15 00:53:52;;;;;;;14.60;12.90;;;;;;;4.53;96.47;95974.06;5061882;28;20651;-74
2021/11/15 00:56:20;;;;;;;18.70;15.03;;;;;;;4.50;96.16;95979.59;5061027;28;20670;-74
2021/11/15 00:58:48;;;;;;;12.30;11.20;;;;;;;4.55;96.27;95979.16;5048281;28;20235;-74
2021/11/15 01:01:16;;;;;;;14.50;13.27;;;;;;;4.54;96.48;95975.72;5067382;28;20314;-75
2021/11/15 01:03:45;;;;;;;13.63;12.20;;;;;;;4.46;96.65;95972.16;5060608;28;20808;-75
2021/11/15 01:06:15;;;;;;;14.83;12.80;;;;;;;4.37;97.16;95979.03;5062429;28;20280;-75
2021/11/15 01:08:43;;;;;;;13.77;12.17;;;;;;;4.45;96.94;95975.72;5063617;28;20229;-75
2021/11/15 01:11:12;;;;;;;14.93;12.43;;;;;;;4.40;96.88;95972.72;5052929;28;20239;-75
2021/11/15 01:13:40;;;;;;;13.80;12.33;;;;;;;4.46;96.91;95966.94;5060909;28;20215;-75
2021/11/15 01:16:09;;;;;;;11.93;10.63;;;;;;;4.46;96.04;95966.94;5065209;28;20732;-75
2021/11/15 01:18:41;;;;;;;14.73;11.40;;;;;;;4.45;96.28;95970.50;5067327;28;20221;-75
2021/11/15 01:21:09;;;;;;;13.90;12.10;;;;;;;4.41;96.36;95976.97;5065567;28;20699;-75
2021/11/15 01:23:40;;;;;;;14.23;11.83;;;;;;;4.38;96.38;95980.69;5050269;28;20240;-75
2021/11/15 01:26:09;;;;;;;15.27;12.27;;;;;;;4.44;95.84;95971.47;5047710;28;20429;-75
2021/11/15 01:28:38;;;;;;;17.63;13.50;;;;;;;4.40;95.79;95977.94;5068765;28;20228;-75
2021/11/15 01:31:06;;;;;;;14.40;12.70;;;;;;;4.35;95.87;95969.69;5067374;28;20225;-74
2021/11/15 01:33:34;;;;;;;15.50;13.63;;;;;;;4.26;96.30;95968.72;5066172;28;20724;-74
2021/11/15 01:36:02;;;;;;;16.93;12.57;;;;;;;4.38;96.24;95969.41;5052475;28;20286;-75
2021/11/15 01:38:30;;;;;;;20.03;15.03;;;;;;;4.43;96.12;95972.44;5064283;28;20540;-74
2021/11/15 01:41:00;;;;;;;14.57;12.07;;;;;;;4.38;96.07;95974.63;5050724;28;20244;-74
2021/11/15 01:43:28;;;;;;;15.10;11.77;;;;;;;4.42;95.96;95970.78;5057239;28;20220;-74
2021/11/15 01:45:56;;;;;;;12.37;11.10;;;;;;;4.43;96.12;95972.44;5066720;28;20258;-74
2021/11/15 01:48:25;;;;;;;16.37;12.60;;;;;;;4.47;95.99;95973.81;5063546;28;20302;-75
2021/11/15 01:50:53;;;;;;;16.97;13.53;;;;;;;4.48;96.13;95975.44;5050756;28;20312;-74
2021/11/15 01:53:22;;;;;;;16.27;12.83;;;;;;;4.48;96.21;95978.06;5048129;28;20289;-75
2021/11/15 01:55:50;;;;;;;16.97;14.13;;;;;;;4.47;95.59;95976.41;5048017;28;20224;-74
2021/11/15 01:58:19;;;;;;;15.57;12.33;;;;;;;4.40;96.28;95972.72;5050373;28;20244;-74
2021/11/15 02:00:51;;;;;;;15.03;11.53;;;;;;;4.42;96.60;95971.63;5050002;28;20348;-74
2021/11/15 02:03:21;;;;;;;17.90;13.13;;;;;;;4.43;96.67;95967.22;5049430;28;20298;-74
2021/11/15 02:05:50;;;;;;;14.37;12.07;;;;;;;4.50;96.44;95963.09;5082165;28;20705;-75
2021/11/15 02:08:18;;;;;;;15.17;13.57;;;;;;;4.48;96.42;95954.53;5059259;28;20319;-75
2021/11/15 02:10:47;;;;;;;19.23;14.40;;;;;;;4.44;96.61;95958.41;5060285;28;20254;-74
2021/11/15 02:13:17;;;;;;;18.67;13.47;;;;;;;4.44;96.37;95959.22;5066239;28;20300;-75
2021/11/15 02:15:48;;;;;;;17.40;13.13;;;;;;;4.48;96.10;95960.63;5058426;28;20292;-75
2021/11/15 02:18:16;;;;;;;13.57;12.17;;;;;;;4.44;96.12;95969.69;5052705;28;20311;-75
2021/11/15 02:20:49;;;;;;;13.67;12.27;;;;;;;4.40;96.11;95957.06;5065184;28;20218;-75
2021/11/15 02:23:19;;;;;;;16.43;12.43;;;;;;;4.32;96.07;95962.13;5066298;28;20692;-75
2021/11/15 02:25:49;;;;;;;16.40;13.23;;;;;;;4.35;96.30;95959.25;5074068;28;20247;-75
2021/11/15 02:28:17;;;;;;;14.10;10.53;;;;;;;4.39;96.55;95952.75;5065820;28;20285;-75
2021/11/15 02:30:46;;;;;;;20.87;14.47;;;;;;;4.37;96.83;95955.50;5059174;28;20219;-75
2021/11/15 02:33:14;;;;;;;14.67;13.17;;;;;;;4.35;96.80;95954.84;5049205;28;20208;-75
2021/11/15 02:35:42;;;;;;;15.40;13.27;;;;;;;4.34;97.02;95957.59;5048330;28;20219;-75
2021/11/15 02:38:12;;;;;;;22.87;15.17;;;;;;;4.32;96.88;95946.47;5052001;28;20302;-74
2021/11/15 02:40:41;;;;;;;15.03;13.00;;;;;;;4.40;96.89;95951.81;5063269;28;20245;-74
2021/11/15 02:43:09;;;;;;;21.20;16.20;;;;;;;4.32;96.69;95943.84;5065617;28;20331;-74
2021/11/15 02:45:37;;;;;;;15.27;13.07;;;;;;;4.28;96.84;95949.31;5078036;28;20311;-75
2021/11/15 02:48:05;;;;;;;22.70;16.47;;;;;;;4.27;97.10;95952.91;5063004;28;20220;-75
2021/11/15 02:50:34;;;;;;;15.27;13.77;;;;;;;4.31;97.01;95953.47;5063587;28;20258;-75
2021/11/15 02:53:06;;;;;;;18.73;14.23;;;;;;;4.28;97.19;95954.56;5048256;28;20252;-75
2021/11/15 02:55:37;;;;;;;17.87;14.07;;;;;;;4.22;97.21;95949.91;5051005;28;20578;-74
2021/11/15 02:58:08;;;;;;;19.83;15.63;;;;;;;4.23;97.19;95941.09;5050080;28;20220;-75
2021/11/15 03:00:41;;;;;;;17.83;15.40;;;;;;;4.22;97.37;95944.69;5062904;28;20219;-75
2021/11/15 03:03:12;;;;;;;15.60;13.67;;;;;;;4.19;97.35;95939.72;5063204;28;20319;-75
2021/11/15 03:05:43;;;;;;;21.07;15.63;;;;;;;4.24;97.57;95950.59;5060927;28;20302;-75
2021/11/15 03:08:12;;;;;;;18.13;16.03;;;;;;;4.24;97.61;95945.34;5065193;28;20650;-75
2021/11/15 03:10:44;;;;;;;17.77;15.90;;;;;;;4.24;97.61;95937.53;5063261;28;20227;-75
2021/11/15 03:13:15;;;;;;;25.60;17.77;;;;;;;4.26;97.62;95951.25;5053799;28;20251;-75
2021/11/15 03:15:45;;;;;;;15.43;13.87;;;;;;;4.25;97.52;95947.00;5047590;28;20220;-74
2021/11/15 03:18:17;;;;;;;20.57;14.93;;;;;;;4.22;97.59;95949.91;5066030;28;20311;-75
2021/11/15 03:20:49;;;;;;;19.17;17.27;;;;;;;4.17;97.81;95946.88;5051390;28;20341;-74
2021/11/15 03:23:20;;;;;;;16.30;13.27;;;;;;;4.22;98.20;95943.84;5064359;28;20218;-75
2021/11/15 03:25:51;;;;;;;19.13;15.23;;;;;;;4.21;97.93;95932.59;5062458;28;20221;-75
2021/11/15 03:28:23;;;;;;;17.10;15.13;;;;;;;4.25;97.41;95941.78;5057927;28;20234;-76
2021/11/15 03:30:53;;;;;;;19.63;14.90;;;;;;;4.28;97.40;95940.66;5047620;28;20692;-75
2021/11/15 03:33:22;;;;;;;15.93;12.67;;;;;;;4.20;97.60;95937.91;5049005;28;20218;-75
2021/11/15 03:35:50;;;;;;;20.27;14.97;;;;;;;4.23;97.90;95940.28;5047640;28;20249;-75
2021/11/15 03:38:18;;;;;;;15.03;13.00;;;;;;;4.25;97.90;95938.34;5047444;28;20254;-75
2021/11/15 03:40:47;;;;;;;17.53;12.70;;;;;;;4.29;98.01;95935.31;5047492;28;20224;-75
2021/11/15 03:43:17;;;;;;;15.60;13.30;;;;;;;4.29;97.61;95929.25;5047827;28;20223;-75
2021/11/15 03:45:46;;;;;;;17.07;15.23;;;;;;;4.26;97.55;95927.75;5047162;28;20748;-75
2021/11/15 03:48:14;;;;;;;18.10;13.97;;;;;;;4.24;97.64;95932.28;5049237;28;20221;-74
2021/11/15 03:50:43;;;;;;;18.53;13.57;;;;;;;4.31;97.15;95931.75;5046062;28;20312;-75
2021/11/15 03:53:13;;;;;;;35.00;18.40;;;;;;;4.32;97.31;95922.94;5045991;28;20215;-74
2021/11/15 03:55:42;;;;;;;19.23;17.00;;;;;;;4.27;97.80;95921.56;5047724;28;20224;-75
2021/11/15 03:58:11;;;;;;;21.87;15.37;;;;;;;4.32;97.79;95928.19;5046162;28;20223;-75
2021/11/15 04:00:41;;;;;;;20.60;14.97;;;;;;;4.35;97.56;95930.50;5062454;28;20332;-74
2021/11/15 04:03:16;;;;;;;21.30;14.73;;;;;;;4.36;97.19;95913.84;5063811;28;20220;-74
2021/11/15 04:05:50;;;;;;;15.90;12.43;;;;;;;4.36;97.52;95919.91;5064689;28;20219;-75
2021/11/15 04:08:18;;;;;;;18.00;13.77;;;;;;;4.36;97.35;95929.53;5060507;28;20651;-75
2021/11/15 04:10:47;;;;;;;18.00;13.23;;;;;;;4.34;97.39;95921.84;5058837;28;20224;-75
2021/11/15 04:13:18;;;;;;;16.10;13.80;;;;;;;4.31;97.52;95924.75;5054218;28;20249;-74
2021/11/15 04:15:52;;;;;;;18.13;14.77;;;;;;;4.28;97.95;95917.97;5055496;28;20223;-75
2021/11/15 04:18:23;;;;;;;17.27;14.80;;;;;;;4.21;98.11;95916.91;5064374;28;20236;-75
2021/11/15 04:20:52;;;;;;;15.57;12.97;;;;;;;4.17;98.51;95919.91;5063631;28;20258;-75
2021/11/15 04:23:21;;;;;;;17.07;13.80;;;;;;;4.17;98.74;95912.91;5064432;28;20287;-75
2021/11/15 04:25:49;;;;;;;24.80;13.97;;;;;;;4.23;98.68;95920.19;5058297;28;20247;-75
2021/11/15 04:28:17;;;;;;;18.77;12.27;;;;;;;4.14;98.95;95921.03;5061826;28;20227;-75
2021/11/15 04:30:45;;;;;;;17.63;14.10;;;;;;;4.22;99.09;95923.78;5065439;28;20586;-75
2021/11/15 04:33:16;;;;;;;23.80;17.10;;;;;;;4.20;99.19;95930.91;5059664;28;20753;-75
2021/11/15 04:35:44;;;;;;;17.53;14.03;;;;;;;4.18;99.10;95927.63;5061698;28;20314;-75
2021/11/15 04:38:12;;;;;;;20.17;15.23;;;;;;;4.19;99.22;95924.03;5064011;28;20251;-75
2021/11/15 04:40:40;;;;;;;16.77;13.73;;;;;;;4.22;98.86;95929.00;5063014;28;21044;-74
2021/11/15 04:43:09;;;;;;;18.57;15.63;;;;;;;4.21;98.97;95919.53;5062069;28;20288;-75
2021/11/15 04:45:37;;;;;;;25.77;16.70;;;;;;;4.18;98.91;95917.16;5062096;28;20745;-75
2021/11/15 04:48:06;;;;;;;17.43;13.70;;;;;;;4.18;98.86;95924.19;5053051;28;20310;-75
2021/11/15 04:50:36;;;;;;;14.90;13.43;;;;;;;4.22;99.12;95923.78;5063322;28;20240;-75
2021/11/15 04:53:05;;;;;;;16.90;13.57;;;;;;;4.25;98.72;95922.66;5067161;28;20338;-75
2021/11/15 04:55:34;;;;;;;21.27;14.93;;;;;;;4.18;98.78;95922.38;5063117;28;20238;-75
2021/11/15 04:58:03;;;;;;;18.13;14.27;;;;;;;4.21;98.60;95924.75;5066477;28;20265;-75
2021/11/15 05:00:32;;;;;;;17.97;13.40;;;;;;;4.14;99.22;95921.03;5052384;28;20269;-74
2021/11/15 05:03:00;;;;;;;14.20;10.90;;;;;;;4.16;98.52;95919.09;5063950;28;20339;-75
2021/11/15 05:05:29;;;;;;;16.33;12.43;;;;;;;4.15;98.36;95925.28;5050869;28;20313;-75
2021/11/15 05:07:58;;;;;;;17.10;12.80;;;;;;;4.10;98.49;95922.25;5064442;28;20246;-74
2021/11/15 05:10:28;;;;;;;12.60;11.13;;;;;;;4.08;98.94;95932.00;5048253;28;20326;-74
2021/11/15 05:12:58;;;;;;;14.07;11.93;;;;;;;4.02;99.17;95927.34;5051918;28;20313;-74
2021/11/15 05:15:26;;;;;;;14.37;12.53;;;;;;;3.99;99.77;95940.66;5053426;28;20259;-75
2021/11/15 05:17:55;;;;;;;14.90;12.53;;;;;;;4.02;99.73;95943.00;5050197;28;20222;-74
2021/11/15 05:20:24;;;;;;;17.20;14.57;;;;;;;4.12;99.68;95943.84;5049406;28;20234;-75
2021/11/15 05:22:52;;;;;;;20.10;14.23;;;;;;;4.17;99.11;95932.97;5049851;28;20367;-75
2021/11/15 05:25:22;;;;;;;16.27;11.93;;;;;;;4.18;99.33;95934.63;5051579;28;20613;-74
2021/11/15 05:27:50;;;;;;;18.23;16.00;;;;;;;4.11;99.50;95939.56;5045986;28;20351;-75
2021/11/15 05:30:20;;;;;;;15.27;13.50;;;;;;;4.14;99.30;95938.50;5050442;28;20314;-74
2021/11/15 05:32:51;;;;;;;13.37;12.20;;;;;;;4.15;99.89;95938.34;5048181;28;20256;-74
2021/11/15 05:35:21;;;;;;;17.70;14.80;;;;;;;4.13;99.46;95929.84;5049498;28;20708;-75
2021/11/15 05:37:50;;;;;;;18.57;13.43;;;;;;;4.09;100.00;95932.84;5054740;28;20715;-75
2021/11/15 05:40:19;;;;;;;14.97;12.10;;;;;;;4.08;100.00;95936.41;5048973;28;20583;-74
2021/11/15 05:42:52;;;;;;;19.57;13.00;;;;;;;4.00;100.00;95940.53;5049834;28;20222;-75
2021/11/15 05:45:21;;;;;;;14.10;12.57;;;;;;;3.97;100.00;95940.00;5060220;28;20222;-75
2021/11/15 05:47:49;;;;;;;20.83;12.17;;;;;;;4.03;99.96;95942.06;5052057;28;20273;-75
2021/11/15 05:50:19;;;;;;;15.10;12.13;;;;;;;3.97;100.00;95937.38;5056003;28;20458;-74
2021/11/15 05:52:47;;;;;;;18.03;12.10;;;;;;;3.97;100.00;95942.59;5049441;28;20308;-74
2021/11/15 05:55:21;;;;;;;14.47;11.70;;;;;;;3.98;100.00;95928.59;5049194;28;20934;-75
2021/11/15 05:57:52;;;;;;;22.33;15.93;;;;;;;4.06;100.00;95936.56;5050433;28;20326;-75
2021/11/15 06:00:24;;;;;;;16.10;12.13;;;;;;;3.98;99.99;95936.41;5047750;28;20703;-75
2021/11/15 06:02:52;;;;;;;11.73;10.53;;;;;;;3.99;99.75;95930.22;5060746;28;20321;-71
2021/11/15 06:05:21;;;;;;;11.80;10.17;;;;;;;3.94;100.00;95937.66;5046912;28;20229;-71
2021/11/15 06:07:50;;;;;;;13.57;11.53;;;;;;;3.91;99.97;95943.13;5059632;28;20223;-71
2021/11/15 06:10:18;;;;;;;12.00;9.57;;;;;;;3.89;99.82;95943.28;5052005;28;20260;-71
2021/11/15 06:12:46;;;;;;;13.50;10.40;;;;;;;3.95;100.00;95941.91;5055637;28;20698;-70
2021/11/15 06:15:17;;;;;;;15.00;11.00;;;;;;;3.88;100.00;95953.84;5046991;28;20222;-71
2021/11/15 06:17:46;;;;;;;11.37;10.27;;;;;;;3.89;100.00;95958.13;5049814;28;20274;-71
2021/11/15 06:20:15;;;;;;;12.93;9.53;;;;;;;3.97;100.00;95950.44;5044692;28;20280;-70
2021/11/15 06:22:45;;;;;;;12.87;11.53;;;;;;;4.03;99.96;95965.56;5057021;28;20277;-71
2021/11/15 06:25:15;;;;;;;13.10;9.67;;;;;;;3.98;99.55;95959.91;5058181;28;20541;-71
2021/11/15 06:27:44;;;;;;;9.83;9.03;;;;;;;3.99;99.41;95958.94;5066514;28;20523;-71
2021/11/15 06:30:15;;;;;;;12.57;9.70;;;;;;;4.08;99.32;95955.53;5075443;28;20729;-71
2021/11/15 06:32:44;;;;;;;13.70;11.27;;;;;;;4.10;98.93;95956.19;5070566;28;20227;-71
2021/11/15 06:35:13;;;;;;;13.83;9.47;;;;;;;4.16;98.58;95950.44;5062534;28;20248;-70
2021/11/15 06:37:42;;;;;;;14.23;11.33;;;;;;;4.17;98.38;95946.88;5049623;28;20224;-70
2021/11/15 06:40:13;;;;;;;17.97;13.27;;;;;;;4.13;98.55;95958.56;5063781;28;20295;-71
2021/11/15 06:42:41;;;;;;;14.83;11.10;;;;;;;4.14;99.04;95952.38;5055904;28;20222;-71
2021/11/15 06:45:10;;;;;;;15.20;11.73;;;;;;;4.14;98.85;95956.78;5052476;28;20219;-70
2021/11/15 06:47:41;;;;;;;17.20;11.63;;;;;;;4.15;99.35;95956.63;5065223;28;20301;-70
2021/11/15 06:50:12;;;;;;;15.53;12.53;;;;;;;4.17;99.28;95959.91;5062710;28;20280;-70
2021/11/15 06:52:40;;;;;;;15.70;13.20;;;;;;;4.18;99.75;95963.34;5052158;28;20764;-70
2021/11/15 06:55:10;;;;;;;23.33;12.77;;;;;;;4.19;99.61;95959.78;5062530;28;20308;-71
2021/11/15 06:57:40;;;;;;;24.63;15.07;;;;;;;4.20;99.53;95957.03;5054069;28;20305;-71
2021/11/15 07:00:11;;;;;;;20.30;13.73;;;;;;;4.22;99.77;95956.91;5064298;28;20287;-71
2021/11/15 07:02:40;;;;;;;20.40;14.27;;;;;;;4.18;99.91;95958.97;5065159;28;20237;-70
2021/11/15 07:05:11;;;;;;;19.67;15.67;;;;;;;4.21;99.82;95961.31;5057412;28;20519;-70
2021/11/15 07:07:39;;;;;;;19.13;13.17;;;;;;;4.16;99.81;95968.72;5063664;28;20315;-70
2021/11/15 07:10:09;;;;;;;18.40;13.97;;;;;;;4.00;100.00;95963.22;5052600;28;20738;-71
2021/11/15 07:12:36;;;;;;;12.73;11.27;;;;;;;4.02;100.00;95979.56;5053398;28;20232;-71
2021/11/15 07:15:06;;;;;;;18.67;15.50;;;;;;;4.08;100.00;95984.25;5051706;28;20230;-71
2021/11/15 07:17:34;;;;;;;20.90;14.43;;;;;;;4.10;100.00;95984.94;5065392;28;20234;-71
2021/11/15 07:20:04;;;;;;;22.73;14.57;;;;;;;4.04;100.00;95982.06;5059441;28;20227;-71
2021/11/15 07:22:33;;;;;;;19.77;14.10;;;;;;;4.04;100.00;95977.66;5057328;28;20222;-71
2021/11/15 07:25:01;;;;;;;17.87;13.87;;;;;;;4.07;100.00;95982.59;5062468;28;20273;-71
2021/11/15 07:27:29;;;;;;;20.60;13.07;;;;;;;4.01;100.00;95985.75;5057254;28;20238;-71
2021/11/15 07:29:57;;;;;;;27.27;17.73;;;;;;;4.10;100.00;95984.94;5065508;28;20824;-71
2021/11/15 07:32:26;;;;;;;18.93;14.17;;;;;;;4.13;100.00;95987.28;5064926;28;20586;-71
2021/11/15 07:34:54;;;;;;;19.67;13.90;;;;;;;4.17;100.00;95991.25;5061798;28;20223;-71
2021/11/15 07:37:23;;;;;;;19.17;13.97;;;;;;;4.21;99.94;95990.03;5056136;28;20551;-71
2021/11/15 07:39:51;;;;;;;19.73;13.60;;;;;;;4.20;99.72;95998.00;5060282;28;20287;-71
2021/11/15 07:42:20;;;;;;;22.90;15.30;;;;;;;4.16;99.78;95994.84;5061508;28;20297;-71
2021/11/15 07:44:49;;;;;;;19.00;16.63;;;;;;;4.20;99.73;95993.59;5062049;28;20229;-71
2021/11/15 07:47:18;;;;;;;21.17;15.73;;;;;;;4.20;99.73;95993.59;5059916;28;20263;-71
2021/11/15 07:49:46;;;;;;;17.37;14.10;;;;;;;4.21;99.31;96002.28;5058899;28;20667;-71
2021/11/15 07:52:17;;;;;;;14.50;12.73;;;;;;;4.20;99.82;95993.59;5064138;28;20207;-71
2021/11/15 07:54:46;;;;;;;18.03;13.00;;;;;;;4.09;99.66;95993.72;5050001;28;20228;-71
2021/11/15 07:57:14;;;;;;;15.07;12.67;;;;;;;4.18;100.00;95997.31;5057362;28;20335;-71
2021/11/15 07:59:43;;;;;;;13.87;10.93;;;;;;;4.20;99.60;95992.78;5061714;28;20223;-71
2021/11/15 08:02:14;;;;;;;16.63;13.13;;;;;;;4.23;99.50;95998.56;5048079;28;20261;-71
2021/11/15 08:04:42;;;;;;;18.97;13.03;;;;;;;4.18;99.46;96000.75;5047219;28;20276;-71
2021/11/15 08:07:11;;;;;;;13.63;11.13;;;;;;;4.21;99.26;95995.28;5049517;28;20224;-71
2021/11/15 08:09:40;;;;;;;14.87;12.67;;;;;;;4.19;99.50;96002.41;5046245;28;20299;-71
2021/11/15 08:12:11;;;;;;;16.67;13.30;;;;;;;4.20;99.28;96006.66;5051912;28;20225;-71
2021/11/15 08:14:43;;;;;;;15.43;13.03;;;;;;;4.23;99.03;95997.75;5055712;28;20231;-71
2021/11/15 08:17:13;;;;;;;14.57;11.20;;;;;;;4.16;99.44;96007.91;5064792;28;20443;-71
2021/11/15 08:19:42;;;;;;;16.40;11.93;;;;;;;4.22;99.62;96007.38;5060779;28;20228;-71
2021/11/15 08:22:10;;;;;;;17.13;11.87;;;;;;;4.21;99.37;95999.66;5064084;28;20293;-71
2021/11/15 08:25:34;;;;;;;14.33;11.40;;;;;;;4.22;99.64;96011.75;5061562;28;20315;-71
2021/11/15 08:28:04;;;;;;;12.77;9.57;;;;;;;4.24;99.19;96010.66;5049979;28;20404;-71
2021/11/15 08:30:33;;;;;;;12.87;11.60;;;;;;;4.25;99.31;96016.72;5046945;28;20353;-71
2021/11/15 08:33:01;;;;;;;14.47;12.57;;;;;;;4.26;99.40;96008.72;5046516;28;20610;-71
2021/11/15 08:35:29;;;;;;;13.73;10.43;;;;;;;4.28;99.22;96016.44;5050343;28;20220;-71
2021/11/15 08:38:39;;;;;;;15.70;12.53;;;;;;;4.29;99.08;96008.44;5047109;28;20651;-71
2021/11/15 08:41:07;;;;;;;18.80;12.17;;;;;;;4.27;99.50;96014.78;5044535;28;20224;-71
2021/11/15 08:43:38;;;;;;;10.67;9.70;;;;;;;4.27;99.38;96010.38;5048077;28;20239;-71
2021/11/15 08:46:07;;;;;;;12.83;11.17;;;;;;;4.34;99.12;96015.06;5045459;28;20243;-71
2021/11/15 08:48:35;;;;;;;13.97;9.93;;;;;;;4.34;99.42;96020.28;5045647;28;20219;-71
2021/11/15 08:51:05;;;;;;;10.60;8.03;;;;;;;4.37;99.50;96014.78;5046595;28;20317;-71
2021/11/15 08:53:33;;;;;;;9.93;8.70;;;;;;;4.36;98.57;96013.13;5050483;28;20232;-71
2021/11/15 08:56:02;;;;;;;10.73;9.67;;;;;;;4.33;98.87;96009.03;5046523;28;20916;-71
2021/11/15 08:58:30;;;;;;;18.43;12.37;;;;;;;4.38;99.02;96006.81;5045522;28;20221;-71
2021/11/15 09:01:00;;;;;;;9.83;8.93;;;;;;;4.34;98.40;96004.63;5050837;28;20220;-71
2021/11/15 09:03:28;;;;;;;11.20;9.97;;;;;;;4.32;98.46;96002.16;5050050;28;20992;-71
2021/11/15 09:05:57;;;;;;;15.13;10.40;;;;;;;4.32;98.74;96004.75;5048719;28;20374;-71
2021/11/15 09:08:25;;;;;;;12.77;11.17;;;;;;;4.36;98.72;96015.75;5047489;28;20324;-71
2021/11/15 09:10:53;;;;;;;13.93;10.87;;;;;;;4.32;99.15;96009.16;5046169;28;20318;-71
2021/11/15 09:13:21;;;;;;;13.50;11.10;;;;;;;4.29;99.43;96013.69;5044853;28;20234;-71
2021/11/15 09:15:49;;;;;;;13.53;11.43;;;;;;;4.34;99.46;96015.06;5055563;28;20229;-71
2021/11/15 09:18:19;;;;;;;13.43;11.67;;;;;;;4.43;99.14;96014.25;5055883;28;20242;-72
2021/11/15 09:20:47;;;;;;;12.43;11.00;;;;;;;4.39;99.18;96020.69;5042593;28;20289;-71
2021/11/15 09:23:17;;;;;;;12.73;11.47;;;;;;;4.40;99.29;96031.03;5045472;28;20218;-70
2021/11/15 09:25:46;;;;;;;11.43;9.73;;;;;;;4.40;99.36;96028.41;5031037;28;20231;-71
2021/11/15 09:28:14;;;;;;;13.17;11.03;;;;;;;4.41;99.38;96021.41;5044248;28;20229;-71
2021/11/15 09:30:44;;;;;;;15.10;11.57;;;;;;;4.48;99.33;96027.72;5041784;28;20230;-70
2021/11/15 09:33:13;;;;;;;14.10;9.67;;;;;;;4.48;98.95;96032.94;5040779;28;20276;-71
2021/11/15 09:35:48;;;;;;;10.13;8.40;;;;;;;4.55;98.54;96028.81;5040520;28;20646;-71
2021/11/15 09:38:18;;;;;;;11.30;9.43;;;;;;;4.51;98.78;96028.28;5040677;28;20224;-71
2021/11/15 09:40:50;;;;;;;11.13;9.07;;;;;;;4.41;99.07;96022.22;5044789;28;20218;-71
2021/11/15 09:43:18;;;;;;;15.90;12.27;;;;;;;4.43;99.16;96024.69;5049817;28;20775;-71
2021/11/15 09:45:47;;;;;;;10.10;9.10;;;;;;;4.36;99.53;96023.59;5049257;28;20230;-71
2021/11/15 09:48:16;;;;;;;11.67;10.30;;;;;;;4.38;99.70;96026.88;5058635;28;20222;-71
2021/11/15 09:50:45;;;;;;;11.40;10.27;;;;;;;4.40;99.77;96017.16;5064924;28;25496;-71
2021/11/15 09:53:14;;;;;;;11.03;9.93;;;;;;;4.38;99.87;96021.66;5046930;28;20716;-71
2021/11/15 09:55:47;;;;;;;13.60;10.40;;;;;;;4.39;99.79;96018.06;5055399;28;20426;-71
2021/11/15 09:58:15;;;;;;;10.90;9.90;;;;;;;4.36;99.34;96021.78;5047202;28;24730;-71
2021/11/15 10:00:45;;;;;;;10.63;9.57;;;;;;;4.41;99.71;96016.19;5046499;28;20309;-71
2021/11/15 10:03:13;;;;;;;15.57;11.07;;;;;;;4.49;99.94;96013.72;5047521;28;20698;-70
2021/11/15 10:05:42;;;;;;;14.50;10.67;;;;;;;4.45;99.67;96013.13;5049354;28;20289;-71
2021/11/15 10:08:12;;;;;;;17.73;12.77;;;;;;;4.53;99.67;96004.63;5060330;28;20229;-71
2021/11/15 10:10:43;;;;;;;15.20;13.23;;;;;;;4.62;99.59;96006.41;5057679;28;20264;-70
2021/11/15 10:13:21;;;;;;;14.27;12.43;;;;;;;4.67;99.58;96006.00;5059024;28;20232;-70
2021/11/15 10:15:54;;;;;;;13.43;10.70;;;;;;;4.64;98.84;96001.84;5066441;28;20304;-70
2021/11/15 10:18:31;;;;;;;14.80;13.00;;;;;;;4.44;99.24;96005.44;5062404;28;20239;-71
2021/11/15 10:21:02;;;;;;;15.60;12.93;;;;;;;4.43;99.43;95988.94;5053331;28;20229;-70
2021/11/15 10:23:35;;;;;;;16.23;13.90;;;;;;;4.38;99.90;96000.75;5062627;28;20285;-71
2021/11/15 10:26:19;;;;;;;18.90;15.17;;;;;;;4.36;99.96;95998.28;5060456;28;20627;-70
2021/11/15 10:28:52;;;;;;;12.70;11.47;;;;;;;4.47;100.00;95999.94;5066804;28;20720;-70
2021/11/15 10:31:25;;;;;;;14.97;12.90;;;;;;;4.44;99.83;96000.22;5073838;28;20290;-70
2021/11/15 10:33:53;;;;;;;17.47;12.77;;;;;;;4.50;99.56;95995.28;5056870;28;20386;-70
2021/11/15 10:36:45;;;;;;;12.23;10.83;;;;;;;4.44;99.30;96000.22;5059732;28;20276;-70
2021/11/15 10:39:15;;;;;;;16.37;12.67;;;;;;;4.48;99.65;95996.34;5056446;28;20247;-70
2021/11/15 10:41:43;;;;;;;17.77;14.80;;;;;;;4.45;99.04;95980.97;5062288;28;20228;-70
2021/11/15 10:44:12;;;;;;;15.33;13.67;;;;;;;4.37;99.27;95988.66;5065732;28;20462;-70
2021/11/15 10:46:41;;;;;;;12.90;11.63;;;;;;;4.41;99.44;95987.44;5064418;28;20244;-70
2021/11/15 10:49:11;;;;;;;15.13;13.43;;;;;;;4.40;99.12;95984.00;5055136;28;20311;-71
2021/11/15 10:51:45;;;;;;;17.83;13.40;;;;;;;4.35;99.34;95988.78;5061013;28;20715;-70
2021/11/15 10:54:48;;;;;;;12.83;10.87;;;;;;;4.56;98.60;95986.03;5062657;28;20220;-71
2021/11/15 10:57:26;;;;;;;13.03;8.77;;;;;;;4.61;97.54;95996.09;5060975;28;20307;-70
2021/11/15 11:00:25;;;;;;;11.57;9.67;;;;;;;4.53;97.70;95989.75;5048080;28;20257;-70
2021/11/15 11:02:55;;;;;;;14.13;11.73;;;;;;;4.53;97.80;95989.75;5046193;28;20230;-70
2021/11/15 11:05:26;;;;;;;13.63;12.03;;;;;;;4.55;98.48;95987.00;5056575;28;20214;-70
2021/11/15 11:08:06;;;;;;;14.70;12.10;;;;;;;4.59;98.05;95991.00;5054701;28;20241;-71
2021/11/15 11:10:43;;;;;;;15.03;12.50;;;;;;;4.63;97.57;95984.53;5053960;28;20712;-70
2021/11/15 11:13:15;;;;;;;15.80;11.37;;;;;;;4.67;97.06;95990.31;5060119;28;20314;-70
2021/11/15 11:15:46;;;;;;;17.17;12.93;;;;;;;4.69;97.29;95991.00;5065882;28;20227;-70
2021/11/15 11:18:18;;;;;;;12.57;11.37;;;;;;;4.69;97.17;95975.31;5064175;28;20285;-71
2021/11/15 11:27:05;;;;;;;13.23;9.10;;;;;;;4.56;96.82;95978.19;5063818;28;20275;-70
2021/11/15 11:29:36;;;;;;;14.10;11.33;;;;;;;4.51;97.25;95980.41;5056551;28;20223;-70
2021/11/15 11:32:09;;;;;;;14.27;12.73;;;;;;;4.53;97.30;95973.25;5056134;28;20230;-70
2021/11/15 11:34:38;;;;;;;11.73;10.17;;;;;;;4.52;97.52;95976.84;5063161;28;20314;-70
2021/11/15 11:37:08;;;;;;;12.63;11.33;;;;;;;4.52;97.72;95967.19;5055724;28;21273;-70
2021/11/15 11:39:38;;;;;;;15.63;11.67;;;;;;;4.49;98.09;95966.66;5057680;28;20302;-70
2021/11/15 11:42:09;;;;;;;19.30;13.97;;;;;;;4.54;98.53;95964.44;5063126;28;20211;-70
2021/11/15 11:44:37;;;;;;;16.07;12.80;;;;;;;4.48;98.44;95970.22;5065236;28;20269;-70